createdAt,value
2024-03-04T00:02:19.717Z,18.08
2024-03-04T00:04:46.961Z,17.25
2024-03-04T00:07:14.075Z,18.20
2024-03-04T00:09:41.427Z,17.77
2024-03-04T00:12:08.635Z,19.35
2024-03-04T00:14:36.192Z,19.92
2024-03-04T00:17:03.139Z,19.00
2024-03-04T00:19:30.760Z,18.55
2024-03-04T00:21:57.800Z,19.58
2024-03-04T00:24:25.076Z,19.42
2024-03-04T00:26:51.988Z,21.08
2024-03-04T00:29:19.234Z,20.65
2024-03-04T00:31:46.392Z,19.48
2024-03-04T00:34:14.133Z,18.33
2024-03-04T00:36:41.152Z,20.05
2024-03-04T00:39:10.822Z,17.90
2024-03-04T00:41:37.944Z,18.00
2024-03-04T00:44:05.633Z,17.85
2024-03-04T00:46:33.241Z,18.10
2024-03-04T00:49:00.422Z,17.75
2024-03-04T00:51:27.396Z,16.50
2024-03-04T00:53:54.709Z,18.02
2024-03-04T00:56:22.325Z,17.98
2024-03-04T00:58:50.478Z,18.70
2024-03-04T01:01:17.516Z,17.35
2024-03-04T01:03:44.713Z,18.42
2024-03-04T01:06:11.721Z,17.58
2024-03-04T01:08:39.500Z,19.80
2024-03-04T01:11:06.875Z,18.52
2024-03-04T01:13:34.387Z,19.98
2024-03-04T01:16:01.548Z,21.65
2024-03-04T01:18:30.660Z,20.77
2024-03-04T01:20:58.067Z,20.92
2024-03-04T01:23:25.275Z,20.20
2024-03-04T01:25:52.250Z,19.52
2024-03-04T01:28:19.510Z,20.40
2024-03-04T01:30:49.077Z,19.67
2024-03-04T01:33:18.131Z,20.45
2024-03-04T01:35:45.009Z,20.25
2024-03-04T01:38:12.234Z,20.48
2024-03-04T01:40:39.193Z,20.55
2024-03-04T01:43:07.480Z,20.05
2024-03-04T01:45:34.626Z,21.50
2024-03-04T01:48:05.042Z,20.23
2024-03-04T01:50:40.164Z,21.42
2024-03-04T01:53:09.759Z,20.85
2024-03-04T01:55:43.593Z,20.85
2024-03-04T01:58:13.846Z,20.80
2024-03-04T02:00:45.705Z,20.65
2024-03-04T02:03:16.562Z,20.85
2024-03-04T02:05:49.946Z,20.42
2024-03-04T02:08:18.483Z,19.45
2024-03-04T02:10:45.830Z,19.20
2024-03-04T02:13:13.504Z,20.33
2024-03-04T02:15:40.683Z,22.05
2024-03-04T02:18:09.421Z,20.40
2024-03-04T02:20:43.844Z,20.60
2024-03-04T02:23:13.766Z,20.17
2024-03-04T02:25:55.955Z,21.80
2024-03-04T02:28:24.677Z,20.08
2024-03-04T02:30:52.232Z,23.35
2024-03-04T02:33:22.838Z,20.90
2024-03-04T02:35:51.136Z,20.80
2024-03-04T02:38:19.816Z,21.02
2024-03-04T02:40:50.203Z,21.73
2024-03-04T02:43:19.101Z,20.70
2024-03-04T02:45:46.318Z,21.90
2024-03-04T02:48:14.496Z,22.10
2024-03-04T02:50:41.472Z,20.42
2024-03-04T02:53:09.929Z,21.35
2024-03-04T02:55:38.580Z,20.85
2024-03-04T02:58:07.750Z,20.88
2024-03-04T03:00:35.504Z,21.33
2024-03-04T03:03:02.829Z,20.85
2024-03-04T03:05:29.929Z,20.15
2024-03-04T03:07:57.258Z,19.92
2024-03-04T03:10:24.635Z,20.52
2024-03-04T03:12:52.057Z,21.35
2024-03-04T03:15:18.939Z,21.35
2024-03-04T03:17:46.109Z,20.00
2024-03-04T03:20:19.476Z,20.25
2024-03-04T03:22:50.158Z,22.08
2024-03-04T03:25:17.980Z,20.67
2024-03-04T03:27:45.609Z,19.55
2024-03-04T03:30:13.388Z,20.05
2024-03-04T03:32:41.406Z,20.73
2024-03-04T03:35:09.281Z,19.65
2024-03-04T03:37:36.967Z,19.48
2024-03-04T03:40:05.426Z,19.27
2024-03-04T03:42:35.346Z,20.70
2024-03-04T03:45:02.489Z,19.05
2024-03-04T03:47:31.746Z,20.52
2024-03-04T03:49:58.953Z,20.48
2024-03-04T03:52:26.524Z,20.58
2024-03-04T03:54:53.520Z,20.08
2024-03-04T03:57:20.743Z,20.05
2024-03-04T03:59:48.108Z,19.55
2024-03-04T04:02:15.448Z,19.48
2024-03-04T04:04:42.437Z,20.40
2024-03-04T04:07:10.715Z,20.48
2024-03-04T04:09:37.744Z,22.08
2024-03-04T04:12:05.318Z,20.33
2024-03-04T04:14:32.223Z,21.02
2024-03-04T04:16:59.377Z,24.38
2024-03-04T04:19:26.385Z,23.58
2024-03-04T04:21:53.986Z,21.33
2024-03-04T04:24:20.927Z,21.48
2024-03-04T04:26:48.149Z,21.10
2024-03-04T04:29:15.100Z,19.85
2024-03-04T04:31:42.403Z,19.23
2024-03-04T04:34:09.357Z,19.83
2024-03-04T04:36:36.994Z,19.92
2024-03-04T04:39:04.078Z,19.95
2024-03-04T04:41:35.029Z,20.85
2024-03-04T04:44:03.051Z,20.20
2024-03-04T04:46:30.405Z,20.58
2024-03-04T04:48:57.385Z,19.88
2024-03-04T04:51:24.726Z,21.58
2024-03-04T04:53:54.460Z,20.25
2024-03-04T04:56:22.886Z,21.30
2024-03-04T04:58:49.976Z,21.80
2024-03-04T05:01:30.499Z,20.25
2024-03-04T05:06:28.409Z,20.13
2024-03-04T05:08:55.368Z,20.27
2024-03-04T05:11:23.876Z,20.02
2024-03-04T05:13:50.956Z,20.65
2024-03-04T05:16:18.138Z,20.42
2024-03-04T05:18:45.033Z,21.48
2024-03-04T05:21:13.152Z,20.05
2024-03-04T05:23:40.355Z,19.73
2024-03-04T05:26:07.555Z,21.50
2024-03-04T05:28:34.574Z,21.23
2024-03-04T05:31:01.950Z,20.65
2024-03-04T05:33:28.922Z,19.95
2024-03-04T05:35:56.164Z,20.58
2024-03-04T05:38:24.252Z,19.52
2024-03-04T05:40:51.751Z,20.80
2024-03-04T05:43:19.364Z,21.48
2024-03-04T05:45:46.989Z,20.98
2024-03-04T05:48:14.379Z,20.83
2024-03-04T05:50:41.904Z,20.20
2024-03-04T05:53:08.810Z,20.80
2024-03-04T05:55:36.705Z,21.02
2024-03-04T05:58:04.898Z,20.90
2024-03-04T06:00:33.588Z,20.02
2024-03-04T06:03:00.739Z,23.05
2024-03-04T06:05:28.457Z,21.63
2024-03-04T06:07:59.893Z,21.67
2024-03-04T06:10:28.784Z,19.45
2024-03-04T06:12:55.819Z,22.13
2024-03-04T06:15:23.079Z,23.52
2024-03-04T06:17:50.616Z,21.45
2024-03-04T06:20:17.846Z,22.27
2024-03-04T06:22:44.846Z,21.73
2024-03-04T06:25:12.112Z,22.42
2024-03-04T06:27:39.192Z,21.67
2024-03-04T06:30:12.281Z,22.05
2024-03-04T06:32:39.390Z,22.33
2024-03-04T06:35:07.568Z,22.83
2024-03-04T06:37:34.822Z,22.92
2024-03-04T06:40:02.362Z,24.23
2024-03-04T06:42:30.100Z,25.05
2024-03-04T06:44:57.450Z,24.45
2024-03-04T06:47:24.420Z,23.90
2024-03-04T06:49:52.396Z,24.02
2024-03-04T06:52:19.372Z,21.58
2024-03-04T06:54:51.051Z,22.55
2024-03-04T06:57:18.801Z,24.48
2024-03-04T06:59:46.398Z,22.17
2024-03-04T07:02:13.488Z,22.90
2024-03-04T07:04:40.920Z,21.90
2024-03-04T07:07:07.962Z,23.10
2024-03-04T07:09:35.311Z,23.38
2024-03-04T07:12:02.181Z,22.88
2024-03-04T07:14:29.426Z,22.45
2024-03-04T07:16:56.432Z,22.17
2024-03-04T07:19:24.838Z,20.88
2024-03-04T07:21:51.813Z,22.55
2024-03-04T07:24:19.089Z,20.60
2024-03-04T07:26:46.135Z,20.05
2024-03-04T07:29:20.217Z,20.50
2024-03-04T07:31:51.338Z,21.45
2024-03-04T07:34:19.006Z,19.88
2024-03-04T07:36:46.070Z,20.38
2024-03-04T07:39:13.300Z,22.67
2024-03-04T07:41:40.188Z,19.67
2024-03-04T07:44:07.561Z,20.40
2024-03-04T07:46:34.794Z,22.35
2024-03-04T07:49:02.098Z,21.02
2024-03-04T07:51:29.120Z,20.35
2024-03-04T07:53:56.591Z,22.40
2024-03-04T07:56:23.541Z,21.80
2024-03-04T07:58:50.816Z,21.90
2024-03-04T08:01:17.960Z,21.67
2024-03-04T08:03:46.557Z,21.42
2024-03-04T08:06:13.862Z,20.25
2024-03-04T08:08:41.068Z,20.23
2024-03-04T08:11:08.268Z,21.15
2024-03-04T08:13:35.569Z,22.35
2024-03-04T08:16:02.729Z,22.00
2024-03-04T08:18:30.059Z,23.42
2024-03-04T08:20:57.308Z,21.05
2024-03-04T08:23:24.491Z,23.70
2024-03-04T08:25:53.114Z,26.10
2024-03-04T08:28:28.582Z,26.27
2024-03-04T08:31:02.275Z,23.08
2024-03-04T08:33:29.500Z,23.33
2024-03-04T08:35:56.486Z,24.73
2024-03-04T08:38:24.845Z,24.77
2024-03-04T08:40:51.867Z,26.05
2024-03-04T08:43:19.185Z,25.13
2024-03-04T08:45:46.118Z,27.85
2024-03-04T08:48:13.276Z,28.58
2024-03-04T08:50:40.266Z,25.83
2024-03-04T08:53:07.465Z,24.90
2024-03-04T08:55:34.478Z,24.83
2024-03-04T08:58:02.381Z,27.25
2024-03-04T09:00:29.318Z,24.65
2024-03-04T09:02:56.594Z,25.77
2024-03-04T09:05:23.756Z,26.15
2024-03-04T09:07:51.044Z,26.02
2024-03-04T09:10:18.536Z,23.02
2024-03-04T09:12:48.809Z,25.40
2024-03-04T09:15:17.862Z,24.58
2024-03-04T09:17:45.157Z,25.10
2024-03-04T09:20:12.322Z,25.45
2024-03-04T09:22:41.904Z,30.65
2024-03-04T09:25:09.348Z,29.08
2024-03-04T09:27:37.831Z,26.60
2024-03-04T09:30:07.704Z,26.30
2024-03-04T09:32:35.536Z,26.95
2024-03-04T09:35:06.408Z,28.40
2024-03-04T09:37:33.957Z,30.88
2024-03-04T09:40:01.013Z,27.40
2024-03-04T09:42:32.258Z,27.35
2024-03-04T09:45:00.571Z,27.23
2024-03-04T09:47:28.765Z,28.20
2024-03-04T09:49:57.753Z,26.63
2024-03-04T09:52:28.473Z,26.30
2024-03-04T09:55:01.161Z,28.70
2024-03-04T09:57:29.827Z,25.85
2024-03-04T09:59:59.581Z,25.80
2024-03-04T10:02:26.913Z,24.35
2024-03-04T10:04:54.089Z,27.08
2024-03-04T10:07:21.393Z,25.95
2024-03-04T10:09:48.364Z,27.10
2024-03-04T10:12:15.582Z,26.77
2024-03-04T10:15:01.239Z,28.70
2024-03-04T10:17:29.097Z,26.50
2024-03-04T10:20:07.734Z,27.95
2024-03-04T10:22:35.691Z,26.30
2024-03-04T10:25:11.650Z,29.23
2024-03-04T10:27:42.467Z,30.85
2024-03-04T10:30:26.349Z,27.10
2024-03-04T10:32:57.304Z,27.73
2024-03-04T10:35:29.586Z,28.10
2024-03-04T10:38:03.847Z,29.90
2024-03-04T10:40:34.755Z,25.92
2024-03-04T10:43:02.358Z,25.88
2024-03-04T10:45:33.606Z,23.88
2024-03-04T10:48:04.901Z,28.02
2024-03-04T10:50:32.380Z,25.70
2024-03-04T10:53:03.157Z,24.77
2024-03-04T10:55:31.987Z,25.27
2024-03-04T10:58:03.803Z,26.10
2024-03-04T11:00:38.550Z,26.05
2024-03-04T11:03:14.400Z,23.38
2024-03-04T11:05:46.080Z,23.27
2024-03-04T11:08:21.182Z,24.02
2024-03-04T11:10:52.703Z,24.83
2024-03-04T11:13:26.188Z,26.15
2024-03-04T11:16:05.556Z,25.98
2024-03-04T11:19:20.849Z,22.63
2024-03-04T11:21:48.603Z,24.13
2024-03-04T11:24:17.828Z,23.45
2024-03-04T11:26:46.645Z,23.45
2024-03-04T11:29:15.877Z,23.60
2024-03-04T11:31:55.134Z,22.75
2024-03-04T11:34:22.563Z,22.50
2024-03-04T11:36:54.449Z,23.15
2024-03-04T11:39:23.014Z,22.08
2024-03-04T11:41:57.011Z,22.42
2024-03-04T11:44:24.561Z,22.70
2024-03-04T11:46:51.986Z,22.65
2024-03-04T11:49:33.973Z,20.55
2024-03-04T11:52:21.639Z,20.73
2024-03-04T11:54:50.147Z,21.08
2024-03-04T11:57:18.654Z,22.25
2024-03-04T12:00:04.008Z,20.70
2024-03-04T12:02:31.470Z,21.73
2024-03-04T12:04:59.785Z,22.08
2024-03-04T12:07:27.357Z,22.65
2024-03-04T12:10:08.922Z,22.33
2024-03-04T12:12:43.103Z,20.92
2024-03-04T12:15:13.655Z,22.23
2024-03-04T12:17:41.423Z,22.58
2024-03-04T12:20:09.711Z,23.15
2024-03-04T12:22:38.928Z,20.75
2024-03-04T12:25:12.254Z,21.25
2024-03-04T12:27:43.584Z,18.33
2024-03-04T12:30:18.552Z,21.65
2024-03-04T12:32:51.866Z,19.80
2024-03-04T12:35:33.649Z,18.73
2024-03-04T12:38:03.609Z,19.42
2024-03-04T12:40:31.099Z,19.58
2024-03-04T12:43:04.696Z,18.50
2024-03-04T12:45:34.572Z,19.38
2024-03-04T12:48:02.340Z,19.33
2024-03-04T12:50:30.944Z,18.70
2024-03-04T12:52:59.740Z,19.42
2024-03-04T12:55:28.039Z,19.52
2024-03-04T12:57:57.672Z,19.25
2024-03-04T13:00:26.318Z,18.92
2024-03-04T13:02:53.447Z,20.88
2024-03-04T13:05:20.668Z,20.95
2024-03-04T13:07:48.116Z,19.05
2024-03-04T13:10:16.488Z,19.00
2024-03-04T13:12:46.071Z,18.98
2024-03-04T13:15:13.848Z,20.45
2024-03-04T13:17:46.424Z,20.60
2024-03-04T13:20:16.788Z,18.48
2024-03-04T13:22:50.327Z,21.65
2024-03-04T13:25:19.357Z,18.55
2024-03-04T13:27:47.945Z,18.20
2024-03-04T13:30:15.745Z,18.30
2024-03-04T13:32:43.128Z,17.95
2024-03-04T13:35:11.161Z,16.58
2024-03-04T13:37:39.567Z,18.17
2024-03-04T13:40:12.105Z,17.60
2024-03-04T13:42:39.581Z,17.45
2024-03-04T13:45:10.020Z,17.00
2024-03-04T13:47:37.593Z,19.38
2024-03-04T13:50:05.772Z,19.02
2024-03-04T13:52:33.342Z,18.38
2024-03-04T13:55:01.175Z,15.88
2024-03-04T13:57:28.448Z,16.27
2024-03-04T13:59:55.685Z,15.82
2024-03-04T14:02:22.929Z,15.45
2024-03-04T14:04:50.344Z,12.93
2024-03-04T14:07:17.543Z,14.45
2024-03-04T14:09:44.789Z,13.60
2024-03-04T14:12:11.766Z,12.85
2024-03-04T14:14:38.976Z,13.27
2024-03-04T14:17:07.103Z,12.40
2024-03-04T14:19:34.540Z,9.82
2024-03-04T14:22:01.450Z,11.65
2024-03-04T14:24:29.006Z,10.70
2024-03-04T14:26:56.002Z,10.48
2024-03-04T14:29:23.204Z,10.38
2024-03-04T14:31:53.283Z,11.18
2024-03-04T14:34:21.071Z,10.75
2024-03-04T14:36:48.183Z,10.90
2024-03-04T14:39:15.397Z,10.05
2024-03-04T14:41:42.300Z,9.23
2024-03-04T14:44:10.199Z,10.60
2024-03-04T14:46:37.344Z,9.73
2024-03-04T14:49:04.690Z,9.70
2024-03-04T14:51:31.631Z,9.07
2024-03-04T14:53:58.957Z,9.38
2024-03-04T14:56:29.765Z,9.60
2024-03-04T14:58:57.612Z,8.27
2024-03-04T15:01:25.238Z,6.97
2024-03-04T15:03:52.558Z,6.82
2024-03-04T15:06:19.916Z,7.15
2024-03-04T15:08:50.125Z,5.95
2024-03-04T15:11:17.255Z,5.70
2024-03-04T15:13:45.372Z,5.50
2024-03-04T15:16:12.768Z,5.72
2024-03-04T15:18:41.279Z,5.78
2024-03-04T15:21:08.809Z,5.85
2024-03-04T15:23:36.577Z,5.38
2024-03-04T15:26:03.852Z,6.10
2024-03-04T15:28:31.670Z,5.68
2024-03-04T15:30:58.770Z,5.68
2024-03-04T15:33:26.144Z,5.63
2024-03-04T15:35:57.029Z,5.72
2024-03-04T15:38:30.352Z,6.03
2024-03-04T15:41:01.203Z,6.68
2024-03-04T15:43:28.596Z,6.25
2024-03-04T15:45:55.767Z,6.78
2024-03-04T15:48:23.039Z,6.03
2024-03-04T15:50:50.879Z,5.60
2024-03-04T15:53:18.192Z,5.30
2024-03-04T15:55:45.291Z,4.97
2024-03-04T15:58:12.666Z,5.15
2024-03-04T16:00:40.839Z,6.55
2024-03-04T16:03:08.350Z,4.68
2024-03-04T16:05:35.808Z,5.00
2024-03-04T16:08:04.921Z,5.38
2024-03-04T16:10:32.189Z,4.97
2024-03-04T16:12:59.729Z,5.30
2024-03-04T16:15:37.821Z,5.53
2024-03-04T16:18:12.653Z,5.43
2024-03-04T16:20:40.127Z,5.10
2024-03-04T16:23:08.371Z,4.82
2024-03-04T16:25:35.380Z,5.55
2024-03-04T16:28:02.758Z,5.53
2024-03-04T16:30:29.786Z,5.43
2024-03-04T16:32:57.415Z,5.15
2024-03-04T16:35:28.421Z,4.85
2024-03-04T16:37:59.358Z,4.90
2024-03-04T16:40:26.480Z,5.50
2024-03-04T16:42:54.007Z,5.68
2024-03-04T16:45:21.074Z,6.13
2024-03-04T16:47:48.518Z,6.38
2024-03-04T16:50:18.621Z,5.25
2024-03-04T16:52:46.298Z,5.03
2024-03-04T16:55:13.812Z,5.38
2024-03-04T16:57:41.384Z,6.13
2024-03-04T17:00:12.664Z,5.35
2024-03-04T17:02:40.063Z,5.25
2024-03-04T17:05:11.651Z,5.57
2024-03-04T17:07:43.421Z,5.80
2024-03-04T17:10:14.959Z,6.07
2024-03-04T17:12:42.559Z,7.22
2024-03-04T17:15:12.823Z,6.47
2024-03-04T17:17:40.619Z,6.20
2024-03-04T17:20:11.563Z,7.55
2024-03-04T17:22:39.637Z,5.78
2024-03-04T17:25:07.703Z,7.18
2024-03-04T17:27:35.877Z,5.93
2024-03-04T17:30:04.613Z,6.07
2024-03-04T17:32:32.977Z,6.97
2024-03-04T17:35:01.934Z,6.43
2024-03-04T17:37:30.470Z,6.70
2024-03-04T17:39:57.999Z,8.40
2024-03-04T17:42:27.211Z,7.43
2024-03-04T17:44:55.637Z,8.07
2024-03-04T17:47:22.997Z,7.82
2024-03-04T17:49:50.811Z,8.05
2024-03-04T17:52:18.624Z,7.50
2024-03-04T17:54:46.073Z,8.43
2024-03-04T17:57:13.836Z,7.70
2024-03-04T17:59:42.034Z,8.55
2024-03-04T18:02:10.690Z,8.52
2024-03-04T18:04:42.620Z,8.27
2024-03-04T18:07:10.019Z,9.75
2024-03-04T18:09:37.134Z,10.48
2024-03-04T18:12:04.768Z,10.93
2024-03-04T18:14:31.726Z,11.60
2024-03-04T18:16:59.341Z,10.88
2024-03-04T18:19:26.800Z,10.32
2024-03-04T18:21:54.085Z,12.27
2024-03-04T18:24:21.064Z,11.70
2024-03-04T18:26:48.508Z,12.60
2024-03-04T18:29:16.358Z,14.80
2024-03-04T18:31:43.710Z,13.88
2024-03-04T18:34:13.356Z,14.43
2024-03-04T18:36:45.160Z,13.70
2024-03-04T18:39:14.166Z,14.27
2024-03-04T18:41:41.920Z,14.82
2024-03-04T18:44:09.079Z,16.23
2024-03-04T18:46:36.511Z,16.52
2024-03-04T18:49:03.633Z,18.67
2024-03-04T18:51:31.620Z,17.85
2024-03-04T18:53:59.773Z,18.55
2024-03-04T18:56:27.344Z,19.30
2024-03-04T18:58:54.605Z,17.15
2024-03-04T19:01:28.024Z,19.00
2024-03-04T19:03:55.353Z,18.13
2024-03-04T19:06:23.891Z,18.23
2024-03-04T19:08:51.060Z,19.70
2024-03-04T19:11:19.001Z,19.15
2024-03-04T19:13:47.468Z,19.73
2024-03-04T19:16:15.415Z,20.13
2024-03-04T19:18:42.568Z,21.45
2024-03-04T19:21:19.688Z,21.48
2024-03-04T19:23:46.967Z,20.10
2024-03-04T19:26:21.951Z,21.90
2024-03-04T19:28:51.669Z,25.27
2024-03-04T19:31:24.084Z,21.85
2024-03-04T19:33:55.253Z,21.67
2024-03-04T19:36:25.956Z,22.83
2024-03-04T19:38:54.518Z,22.60
2024-03-04T19:41:27.712Z,25.05
2024-03-04T19:43:55.296Z,24.27
2024-03-04T19:46:27.008Z,28.75
2024-03-04T19:48:54.740Z,25.50
2024-03-04T19:51:23.693Z,26.05
2024-03-04T19:53:52.338Z,24.98
2024-03-04T19:56:20.119Z,24.92
2024-03-04T19:58:47.605Z,26.05
2024-03-04T20:01:15.178Z,27.33
2024-03-04T20:03:44.349Z,26.35
2024-03-04T20:06:12.627Z,24.83
2024-03-04T20:08:41.962Z,28.25
2024-03-04T20:11:13.277Z,26.63
2024-03-04T20:13:43.196Z,28.08
2024-03-04T20:16:13.958Z,26.58
2024-03-04T20:18:42.453Z,27.45
2024-03-04T20:21:12.867Z,27.75
2024-03-04T20:23:40.170Z,29.55
2024-03-04T20:26:08.055Z,29.90
2024-03-04T20:28:35.232Z,31.83
2024-03-04T20:31:03.800Z,31.05
2024-03-04T20:33:31.771Z,29.17
2024-03-04T20:35:59.147Z,31.58
2024-03-04T20:38:26.782Z,29.08
2024-03-04T20:40:54.552Z,33.72
2024-03-04T20:43:21.886Z,35.25
2024-03-04T20:45:49.188Z,32.60
2024-03-04T20:48:18.638Z,33.30
2024-03-04T20:50:48.738Z,36.20
2024-03-04T20:53:15.689Z,37.45
2024-03-04T20:55:45.292Z,37.45
2024-03-04T20:58:12.507Z,38.70
2024-03-04T21:00:39.997Z,39.13
2024-03-04T21:03:07.674Z,40.22
2024-03-04T21:05:37.016Z,39.05
2024-03-04T21:08:06.492Z,40.70
2024-03-04T21:10:34.004Z,40.08
2024-03-04T21:13:01.110Z,40.65
2024-03-04T21:15:28.278Z,40.95
2024-03-04T21:17:58.102Z,43.10
2024-03-04T21:20:27.583Z,41.65
2024-03-04T21:22:55.846Z,42.70
2024-03-04T21:25:23.909Z,44.40
2024-03-04T21:27:53.548Z,44.58
2024-03-04T21:30:22.477Z,45.03
2024-03-04T21:32:49.937Z,45.25
2024-03-04T21:35:17.327Z,41.95
2024-03-04T21:37:44.472Z,43.47
2024-03-04T21:40:12.836Z,46.55
2024-03-04T21:42:41.022Z,44.72
2024-03-04T21:45:09.781Z,46.95
2024-03-04T21:47:37.074Z,46.20
2024-03-04T21:50:08.599Z,46.58
2024-03-04T21:52:37.146Z,48.50
2024-03-04T21:55:05.511Z,46.47
2024-03-04T21:57:32.500Z,46.22
2024-03-04T21:59:59.775Z,47.40
2024-03-04T22:02:26.832Z,49.72
2024-03-04T22:04:54.194Z,46.55
2024-03-04T22:07:21.362Z,46.75
2024-03-04T22:09:48.700Z,49.22
2024-03-04T22:12:15.666Z,48.50
2024-03-04T22:14:42.965Z,52.97
2024-03-04T22:17:11.562Z,47.25
2024-03-04T22:19:38.945Z,47.85
2024-03-04T22:22:05.901Z,47.38
2024-03-04T22:24:33.118Z,48.90
2024-03-04T22:27:00.017Z,48.22
2024-03-04T22:29:28.060Z,48.55
2024-03-04T22:31:55.171Z,46.67
2024-03-04T22:34:24.113Z,47.08
2024-03-04T22:36:51.119Z,47.83
2024-03-04T22:39:18.252Z,45.15
2024-03-04T22:41:47.056Z,45.97
2024-03-04T22:44:16.361Z,48.17
2024-03-04T22:46:44.793Z,45.95
2024-03-04T22:49:12.258Z,46.83
2024-03-04T22:51:39.404Z,46.97
2024-03-04T22:54:06.635Z,48.15
2024-03-04T22:56:34.237Z,47.42
2024-03-04T22:59:01.818Z,48.83
2024-03-04T23:01:32.505Z,49.08
2024-03-04T23:04:00.147Z,48.22
2024-03-04T23:06:27.233Z,48.67
2024-03-04T23:08:54.774Z,46.28
2024-03-04T23:11:22.406Z,46.25
2024-03-04T23:13:50.361Z,45.13
2024-03-04T23:16:17.631Z,45.50
2024-03-04T23:18:44.888Z,45.88
2024-03-04T23:21:11.982Z,49.45
2024-03-04T23:23:39.686Z,46.60
2024-03-04T23:26:08.093Z,46.83
2024-03-04T23:28:39.045Z,46.20
2024-03-04T23:31:06.110Z,46.22
2024-03-04T23:33:33.380Z,44.70
2024-03-04T23:36:00.313Z,44.83
2024-03-04T23:38:28.115Z,46.13
2024-03-04T23:40:55.548Z,45.70
2024-03-04T23:43:23.389Z,43.97
2024-03-04T23:45:52.195Z,43.15
2024-03-04T23:48:20.590Z,47.95
2024-03-04T23:50:48.581Z,44.20
2024-03-04T23:53:16.302Z,43.28
2024-03-04T23:55:43.421Z,42.45
2024-03-04T23:58:10.802Z,42.00
